Time;durP1;ratioP1;P1;durP2;ratioP2;P2;SDS_P1;SDS_P2;PMS_P1;PMS_P2;Temp;Humidity;BMP_temperature;BMP_pressure;BME280_temperature;BME280_humidity;BME280_pressure;Samples;Min_cycle;Max_cycle;Signal;HPM_P1;HPM_P2
2023/03/17 00:00:18;;;;;;;0.00;0.00;;;7.80;1.00;;;;;;5052910;28;20491;-82
2023/03/17 00:02:46;;;;;;;0.00;0.00;;;7.80;1.00;;;;;;5069507;28;20119;-82
2023/03/17 00:05:16;;;;;;;2.72;1.50;;;7.70;1.00;;;;;;5074015;28;20048;-82
2023/03/17 00:07:43;;;;;;;0.55;0.45;;;7.80;1.00;;;;;;5074386;28;20055;-82
2023/03/17 00:10:18;;;;;;;0.00;0.00;;;7.90;1.00;;;;;;5065556;28;20431;-82
2023/03/17 00:12:45;;;;;;;0.00;0.00;;;7.90;1.00;;;;;;5067599;28;20088;-82
2023/03/17 00:15:11;;;;;;;0.00;0.00;;;7.90;1.00;;;;;;5054663;28;20048;-82
2023/03/17 00:17:37;;;;;;;0.73;0.40;;;8.00;1.00;;;;;;5054253;28;20037;-82
2023/03/17 00:20:04;;;;;;;0.20;0.20;;;8.00;1.00;;;;;;5054345;28;21055;-82
2023/03/17 00:22:30;;;;;;;0.10;0.10;;;8.00;1.00;;;;;;5067138;28;20049;-82
2023/03/17 00:24:55;;;;;;;0.63;0.25;;;8.00;1.00;;;;;;5074174;28;20055;-83
2023/03/17 00:27:22;;;;;;;0.30;0.20;;;7.90;1.00;;;;;;5074194;28;20059;-82
2023/03/17 00:29:48;;;;;;;0.00;0.00;;;7.90;1.00;;;;;;5076967;28;20051;-82
2023/03/17 00:32:19;;;;;;;0.30;0.20;;;8.00;1.00;;;;;;5074597;28;20102;-82
2023/03/17 00:34:45;;;;;;;0.00;0.00;;;8.00;1.00;;;;;;5058955;28;20493;-82
2023/03/17 00:37:11;;;;;;;0.22;0.22;;;8.00;1.00;;;;;;5068508;28;20044;-82
2023/03/17 00:39:38;;;;;;;7.32;1.00;;;8.00;1.00;;;;;;5072150;28;20137;-83
2023/03/17 00:42:05;;;;;;;0.85;0.75;;;7.90;1.00;;;;;;5066193;28;20222;-82
2023/03/17 00:44:32;;;;;;;0.00;0.00;;;7.90;1.00;;;;;;5075563;28;20140;-82
2023/03/17 00:46:58;;;;;;;0.73;0.73;;;8.60;1.00;;;;;;5069257;28;20048;-83
2023/03/17 00:49:25;;;;;;;0.00;0.00;;;7.90;1.00;;;;;;5055989;28;20041;-82
2023/03/17 00:51:51;;;;;;;0.22;0.22;;;7.90;1.00;;;;;;5057951;28;20045;-82
2023/03/17 00:54:19;;;;;;;0.00;0.00;;;7.90;1.00;;;;;;5056647;28;20133;-83
2023/03/17 00:56:46;;;;;;;0.00;0.00;;;8.00;1.00;;;;;;5055727;28;20152;-83
2023/03/17 00:59:37;;;;;;;0.32;0.30;;;8.00;1.00;;;;;;5056596;28;20137;-82
2023/03/17 01:02:03;;;;;;;0.10;0.10;;;8.00;1.00;;;;;;5047415;28;20052;-82
2023/03/17 01:04:29;;;;;;;0.30;0.22;;;8.10;1.00;;;;;;5057805;28;20041;-83
2023/03/17 01:06:57;;;;;;;0.05;0.05;;;8.10;1.00;;;;;;5057676;28;20525;-82
2023/03/17 01:09:25;;;;;;;0.10;0.10;;;8.10;1.00;;;;;;5058323;28;20037;-82
2023/03/17 01:11:51;;;;;;;0.00;0.00;;;8.20;1.00;;;;;;5073078;28;20460;-82
2023/03/17 01:14:17;;;;;;;0.20;0.20;;;8.20;1.00;;;;;;5077475;28;20052;-83
2023/03/17 01:16:43;;;;;;;0.25;0.20;;;8.30;1.00;;;;;;5077760;28;20048;-83
2023/03/17 01:19:11;;;;;;;0.75;0.70;;;8.20;1.00;;;;;;5076445;28;20098;-82
2023/03/17 01:21:37;;;;;;;0.10;0.10;;;8.20;1.00;;;;;;5072354;28;20388;-82
2023/03/17 01:24:03;;;;;;;0.20;0.17;;;8.30;1.00;;;;;;5055958;28;20056;-82
2023/03/17 01:26:29;;;;;;;0.25;0.25;;;8.30;1.00;;;;;;5057163;28;20048;-82
2023/03/17 01:28:55;;;;;;;0.25;0.25;;;8.30;1.00;;;;;;5056747;28;20068;-82
2023/03/17 01:31:22;;;;;;;0.40;0.38;;;8.20;1.00;;;;;;5057317;28;20040;-82
2023/03/17 01:33:47;;;;;;;0.10;0.10;;;8.10;1.00;;;;;;5057071;28;20045;-82
2023/03/17 01:36:14;;;;;;;0.30;0.30;;;9.10;1.00;;;;;;5055924;28;20116;-82
2023/03/17 01:38:40;;;;;;;0.00;0.00;;;8.50;1.00;;;;;;5057019;28;20041;-82
2023/03/17 01:41:06;;;;;;;0.00;0.00;;;8.10;1.00;;;;;;5056064;28;20126;-82
2023/03/17 01:43:32;;;;;;;0.17;0.17;;;8.10;1.00;;;;;;5075775;28;20483;-82
2023/03/17 01:46:24;;;;;;;0.00;0.00;;;8.00;1.00;;;;;;5076921;28;20129;-83
2023/03/17 01:49:11;;;;;;;0.50;0.47;;;8.10;1.00;;;;;;5076757;28;20084;-82
2023/03/17 01:52:05;;;;;;;0.00;0.00;;;8.00;1.00;;;;;;5076326;28;20056;-82
2023/03/17 01:54:36;;;;;;;0.00;0.00;;;8.00;1.00;;;;;;5074101;28;20048;-81
2023/03/17 01:57:17;;;;;;;0.00;0.00;;;8.10;1.00;;;;;;5056537;28;20619;-82
2023/03/17 01:59:46;;;;;;;0.77;0.52;;;8.00;1.00;;;;;;5057027;28;20586;-82
2023/03/17 02:02:16;;;;;;;0.57;0.40;;;8.00;1.00;;;;;;5057060;28;20037;-82
2023/03/17 02:04:42;;;;;;;0.05;0.05;;;8.00;1.00;;;;;;5061066;28;20050;-82
2023/03/17 02:07:09;;;;;;;0.00;0.00;;;8.00;1.00;;;;;;5076587;28;20124;-83
2023/03/17 02:09:35;;;;;;;2.55;1.00;;;7.80;1.00;;;;;;5074265;28;20044;-83
2023/03/17 02:12:02;;;;;;;0.00;0.00;;;7.80;1.00;;;;;;5076522;28;20101;-82
2023/03/17 02:14:29;;;;;;;0.65;0.32;;;7.80;1.00;;;;;;5074673;28;20048;-84
2023/03/17 02:16:55;;;;;;;0.35;0.28;;;7.90;1.00;;;;;;5056093;28;20113;-83
2023/03/17 02:19:20;;;;;;;0.28;0.25;;;8.00;1.00;;;;;;5056257;28;20044;-82
2023/03/17 02:21:50;;;;;;;0.20;0.20;;;7.80;1.00;;;;;;5059927;28;20051;-82
2023/03/17 02:24:19;;;;;;;0.10;0.10;;;7.80;1.00;;;;;;5068454;28;20040;-85
2023/03/17 02:26:47;;;;;;;0.00;0.00;;;7.80;1.00;;;;;;5073774;28;20049;-83
2023/03/17 02:29:13;;;;;;;0.10;0.10;;;7.90;1.00;;;;;;5074344;28;20486;-84
2023/03/17 02:31:39;;;;;;;0.08;0.08;;;8.60;1.00;;;;;;5075809;28;20291;-82
2023/03/17 02:34:05;;;;;;;0.70;0.70;;;7.70;1.00;;;;;;5058369;28;20051;-83
2023/03/17 02:36:31;;;;;;;0.60;0.55;;;7.70;1.00;;;;;;5056964;28;20120;-82
2023/03/17 02:38:56;;;;;;;1.05;0.35;;;8.40;1.00;;;;;;5056494;28;20048;-82
2023/03/17 02:41:23;;;;;;;0.10;0.10;;;7.60;1.00;;;;;;5069372;28;20041;-82
2023/03/17 02:43:49;;;;;;;0.05;0.05;;;7.60;1.00;;;;;;5057428;28;20179;-83
2023/03/17 02:46:15;;;;;;;0.00;0.00;;;7.60;1.00;;;;;;5054866;28;20048;-83
2023/03/17 02:48:41;;;;;;;0.10;0.10;;;7.60;1.00;;;;;;5056575;28;20053;-83
2023/03/17 02:51:07;;;;;;;0.17;0.17;;;7.60;1.00;;;;;;5056225;28;20051;-83
2023/03/17 02:53:33;;;;;;;0.00;0.00;;;7.60;1.00;;;;;;5073069;28;20100;-83
2023/03/17 02:55:59;;;;;;;0.00;0.00;;;7.70;1.00;;;;;;5075884;28;20040;-83
2023/03/17 02:58:24;;;;;;;0.32;0.30;;;7.70;1.00;;;;;;5075928;28;20055;-83
2023/03/17 03:00:50;;;;;;;0.00;0.00;;;7.70;1.00;;;;;;5075180;28;20044;-82
2023/03/17 03:03:16;;;;;;;0.52;0.52;;;7.70;1.00;;;;;;5060662;28;20506;-83
2023/03/17 03:05:42;;;;;;;0.25;0.20;;;7.70;1.00;;;;;;5055106;28;20048;-83
2023/03/17 03:08:08;;;;;;;0.00;0.00;;;7.80;1.00;;;;;;5054849;28;20109;-83
2023/03/17 03:10:33;;;;;;;0.00;0.00;;;7.80;1.00;;;;;;5054033;28;20045;-83
2023/03/17 03:13:00;;;;;;;0.10;0.10;;;8.40;1.00;;;;;;5055017;28;20049;-82
2023/03/17 03:15:26;;;;;;;0.10;0.10;;;7.80;1.00;;;;;;5055086;28;20091;-83
2023/03/17 03:17:51;;;;;;;0.15;0.15;;;7.80;1.00;;;;;;5053131;28;20049;-83
2023/03/17 03:20:18;;;;;;;0.32;0.28;;;7.70;1.00;;;;;;5055149;28;20057;-84
2023/03/17 03:22:43;;;;;;;0.00;0.00;;;7.80;1.00;;;;;;5046237;28;20045;-82
2023/03/17 03:25:09;;;;;;;0.45;0.35;;;7.80;1.00;;;;;;5075892;28;20048;-83
2023/03/17 03:27:35;;;;;;;0.30;0.30;;;7.80;1.00;;;;;;5074396;28;20052;-82
2023/03/17 03:30:00;;;;;;;0.00;0.00;;;7.80;1.00;;;;;;5075353;28;20047;-83
2023/03/17 03:32:26;;;;;;;0.00;0.00;;;7.90;1.00;;;;;;5073291;28;20090;-83
2023/03/17 03:34:52;;;;;;;0.00;0.00;;;7.90;1.00;;;;;;5073613;28;20048;-83
2023/03/17 03:37:18;;;;;;;0.17;0.10;;;8.00;1.00;;;;;;5073857;28;20390;-83
2023/03/17 03:39:44;;;;;;;0.10;0.10;;;7.90;1.00;;;;;;5062911;28;20037;-83
2023/03/17 03:42:10;;;;;;;0.22;0.20;;;7.80;1.00;;;;;;5053951;28;20095;-83
2023/03/17 03:44:36;;;;;;;0.47;0.30;;;7.80;1.00;;;;;;5054808;28;20082;-82
2023/03/17 03:47:02;;;;;;;0.45;0.43;;;7.80;1.00;;;;;;5052994;28;20075;-82
2023/03/17 03:49:27;;;;;;;0.10;0.10;;;7.80;1.00;;;;;;5054723;28;20060;-83
2023/03/17 03:51:53;;;;;;;0.00;0.00;;;7.80;1.00;;;;;;5054119;28;20041;-83
2023/03/17 03:54:19;;;;;;;1.00;0.75;;;7.80;1.00;;;;;;5052875;28;20048;-82
2023/03/17 03:56:44;;;;;;;0.13;0.10;;;7.90;1.00;;;;;;5054094;28;20124;-83
2023/03/17 03:59:10;;;;;;;0.20;0.20;;;7.90;1.00;;;;;;5053793;28;20175;-83
2023/03/17 04:01:36;;;;;;;0.00;0.00;;;7.90;1.00;;;;;;5073334;28;20190;-83
2023/03/17 04:04:01;;;;;;;0.10;0.10;;;7.90;1.00;;;;;;5055292;28;20383;-83
2023/03/17 04:06:27;;;;;;;0.32;0.32;;;7.80;1.00;;;;;;5058403;28;20049;-83
2023/03/17 04:08:53;;;;;;;0.65;0.45;;;7.80;1.00;;;;;;5057574;28;20037;-83
2023/03/17 04:11:18;;;;;;;0.00;0.00;;;7.70;1.00;;;;;;5057435;28;20041;-83
2023/03/17 04:13:44;;;;;;;0.15;0.13;;;8.60;1.00;;;;;;5072739;28;20087;-82
2023/03/17 04:16:10;;;;;;;0.00;0.00;;;7.60;1.00;;;;;;5058781;28;20119;-83
2023/03/17 04:18:36;;;;;;;0.10;0.10;;;7.60;1.00;;;;;;5057803;28;20045;-83
2023/03/17 04:21:01;;;;;;;0.00;0.00;;;7.60;1.00;;;;;;5058121;28;20040;-83
2023/03/17 04:23:27;;;;;;;0.30;0.30;;;7.70;1.00;;;;;;5057955;28;20127;-83
2023/03/17 04:25:53;;;;;;;0.22;0.22;;;8.10;1.00;;;;;;5057339;28;20048;-83
2023/03/17 04:28:19;;;;;;;0.00;0.00;;;7.60;1.00;;;;;;5057858;28;20049;-83
2023/03/17 04:30:45;;;;;;;1.45;0.55;;;7.70;1.00;;;;;;5058188;28;20066;-83
2023/03/17 04:33:13;;;;;;;0.10;0.10;;;7.60;1.00;;;;;;5057726;28;20064;-83
2023/03/17 04:35:38;;;;;;;0.85;0.70;;;7.60;1.00;;;;;;5058382;28;20048;-83
2023/03/17 04:38:04;;;;;;;0.10;0.10;;;7.50;1.00;;;;;;5057743;28;20045;-83
2023/03/17 04:40:30;;;;;;;1.65;0.52;;;7.60;1.00;;;;;;5056843;28;20087;-83
2023/03/17 04:42:55;;;;;;;0.10;0.10;;;7.60;1.00;;;;;;5064161;28;20140;-83
2023/03/17 04:45:21;;;;;;;0.00;0.00;;;7.50;1.00;;;;;;5077428;28;20053;-83
2023/03/17 04:47:47;;;;;;;0.00;0.00;;;7.60;1.00;;;;;;5076541;28;20044;-83
2023/03/17 04:50:13;;;;;;;0.28;0.28;;;7.60;1.00;;;;;;5077139;28;20048;-83
2023/03/17 04:52:39;;;;;;;0.00;0.00;;;7.50;1.00;;;;;;5073376;28;20499;-83
2023/03/17 04:55:10;;;;;;;0.05;0.05;;;7.30;1.00;;;;;;5057195;28;20045;-82
2023/03/17 04:57:36;;;;;;;1.98;1.17;;;7.30;1.00;;;;;;5057617;28;20044;-83
2023/03/17 05:00:04;;;;;;;0.00;0.00;;;7.30;1.00;;;;;;5056876;28;20060;-82
2023/03/17 05:02:30;;;;;;;0.73;0.65;;;7.30;1.00;;;;;;5073068;28;20105;-83
2023/03/17 05:04:56;;;;;;;0.10;0.10;;;7.30;1.00;;;;;;5075980;28;20153;-82
2023/03/17 05:07:22;;;;;;;0.00;0.00;;;7.20;1.00;;;;;;5075921;28;20062;-83
2023/03/17 05:09:47;;;;;;;0.20;0.20;;;7.30;1.00;;;;;;5078113;28;20459;-83
2023/03/17 05:12:13;;;;;;;0.00;0.00;;;7.30;1.00;;;;;;5065609;28;20083;-83
2023/03/17 05:14:39;;;;;;;0.10;0.10;;;7.30;1.00;;;;;;5076766;28;20052;-83
2023/03/17 05:17:06;;;;;;;0.45;0.38;;;7.40;1.00;;;;;;5077437;28;20087;-83
2023/03/17 05:19:31;;;;;;;0.88;0.45;;;7.50;1.00;;;;;;5076865;28;20057;-83
2023/03/17 05:21:57;;;;;;;0.00;0.00;;;7.60;1.00;;;;;;5077520;28;20041;-83
2023/03/17 05:24:23;;;;;;;0.00;0.00;;;7.60;1.00;;;;;;5075565;28;20544;-83
2023/03/17 05:26:48;;;;;;;0.10;0.10;;;7.70;1.00;;;;;;5076033;28;20048;-82
2023/03/17 05:29:14;;;;;;;0.00;0.00;;;7.60;1.00;;;;;;5074560;28;20058;-83
2023/03/17 05:31:40;;;;;;;0.08;0.08;;;7.70;1.00;;;;;;5076320;28;20056;-82
2023/03/17 05:34:06;;;;;;;0.10;0.10;;;7.70;1.00;;;;;;5060121;28;20037;-83
2023/03/17 05:36:32;;;;;;;0.05;0.05;;;7.70;1.00;;;;;;5056521;28;20044;-83
2023/03/17 05:38:58;;;;;;;0.25;0.15;;;7.70;1.00;;;;;;5052827;28;20088;-83
2023/03/17 05:41:24;;;;;;;0.00;0.00;;;7.70;1.00;;;;;;5051885;28;20104;-83
2023/03/17 05:43:50;;;;;;;0.00;0.00;;;7.70;1.00;;;;;;5051011;28;20063;-83
2023/03/17 05:46:16;;;;;;;0.00;0.00;;;7.70;1.00;;;;;;5050837;28;20088;-83
2023/03/17 05:48:42;;;;;;;1.45;0.82;;;7.70;1.00;;;;;;5051029;28;20045;-83
2023/03/17 05:51:08;;;;;;;0.00;0.00;;;7.80;1.00;;;;;;5050903;28;20064;-83
2023/03/17 05:53:35;;;;;;;0.00;0.00;;;8.70;1.00;;;;;;5049958;28;20049;-83
2023/03/17 05:56:01;;;;;;;0.10;0.10;;;7.90;1.00;;;;;;5050746;28;20132;-83
2023/03/17 05:58:27;;;;;;;0.00;0.00;;;7.90;1.00;;;;;;5048825;28;20592;-83
2023/03/17 06:00:53;;;;;;;0.00;0.00;;;7.90;1.00;;;;;;5049923;28;20041;-83
2023/03/17 06:03:19;;;;;;;2.90;0.43;;;7.80;1.00;;;;;;5047991;28;20040;-83
2023/03/17 06:05:45;;;;;;;2.30;0.65;;;7.90;1.00;;;;;;5050333;28;20053;-83
2023/03/17 06:08:11;;;;;;;0.00;0.00;;;7.90;1.00;;;;;;5048513;28;20406;-83
2023/03/17 06:10:37;;;;;;;0.63;0.55;;;8.00;1.00;;;;;;5048716;28;20044;-83
2023/03/17 06:13:03;;;;;;;0.13;0.10;;;8.00;1.00;;;;;;5056415;28;20098;-83
2023/03/17 06:15:29;;;;;;;0.52;0.43;;;8.00;1.00;;;;;;5053602;28;20052;-83
2023/03/17 06:17:58;;;;;;;3.92;0.40;;;8.10;1.00;;;;;;5070992;28;20112;-83
2023/03/17 06:20:26;;;;;;;0.50;0.28;;;8.80;1.00;;;;;;5070181;28;20516;-82
2023/03/17 06:22:52;;;;;;;0.00;0.00;;;8.40;1.00;;;;;;5061737;28;20047;-83
2023/03/17 06:25:18;;;;;;;0.45;0.40;;;8.30;1.00;;;;;;5055187;28;20142;-83
2023/03/17 06:27:44;;;;;;;0.45;0.45;;;8.10;1.00;;;;;;5048627;28;20540;-84
2023/03/17 06:30:10;;;;;;;0.00;0.00;;;8.30;1.00;;;;;;5052099;28;20064;-83
2023/03/17 06:32:36;;;;;;;1.48;0.65;;;8.30;1.00;;;;;;5052885;28;20872;-83
2023/03/17 06:35:04;;;;;;;0.00;0.00;;;8.30;1.00;;;;;;5052754;28;20073;-83
2023/03/17 06:37:30;;;;;;;0.00;0.00;;;8.30;1.00;;;;;;5051741;28;20704;-83
2023/03/17 06:39:57;;;;;;;0.22;0.10;;;8.20;1.00;;;;;;5050695;28;20090;-83
2023/03/17 06:42:22;;;;;;;2.05;1.35;;;8.40;1.00;;;;;;5052048;28;20130;-83
2023/03/17 06:44:51;;;;;;;0.13;0.10;;;8.20;1.00;;;;;;5052362;28;20091;-83
2023/03/17 06:47:18;;;;;;;0.15;0.15;;;8.30;1.00;;;;;;5051086;28;20068;-83
2023/03/17 06:49:44;;;;;;;0.00;0.00;;;8.30;1.00;;;;;;5053221;28;20551;-83
2023/03/17 06:52:10;;;;;;;0.00;0.00;;;8.30;1.00;;;;;;5052513;28;20061;-83
2023/03/17 06:54:36;;;;;;;0.28;0.20;;;8.30;1.00;;;;;;5051274;28;20053;-83
2023/03/17 06:57:02;;;;;;;0.00;0.00;;;8.30;1.00;;;;;;5051756;28;20053;-83
2023/03/17 06:59:29;;;;;;;0.00;0.00;;;8.30;1.00;;;;;;5052568;28;20045;-83
2023/03/17 07:01:55;;;;;;;0.10;0.10;;;8.40;1.00;;;;;;5052759;28;20052;-83
2023/03/17 07:04:20;;;;;;;0.00;0.00;;;8.40;1.00;;;;;;5052006;28;20102;-83
2023/03/17 07:06:46;;;;;;;0.05;0.05;;;8.50;1.00;;;;;;5051453;28;20043;-83
2023/03/17 07:09:12;;;;;;;0.00;0.00;;;8.40;1.00;;;;;;5050725;28;20491;-83
2023/03/17 07:11:40;;;;;;;0.43;0.28;;;8.50;1.00;;;;;;5053048;28;20084;-83
2023/03/17 07:14:06;;;;;;;0.00;0.00;;;8.60;1.00;;;;;;5050486;28;20045;-83
2023/03/17 07:16:32;;;;;;;0.00;0.00;;;8.70;1.00;;;;;;5052200;28;20060;-83
2023/03/17 07:19:00;;;;;;;0.00;0.00;;;9.60;1.00;;;;;;5052712;28;20049;-83
2023/03/17 07:21:26;;;;;;;1.15;0.40;;;8.80;1.00;;;;;;5051071;28;20073;-83
2023/03/17 07:23:52;;;;;;;0.22;0.22;;;9.00;1.00;;;;;;5051934;28;20041;-83
2023/03/17 07:26:18;;;;;;;0.00;0.00;;;9.10;1.00;;;;;;5049899;28;20507;-83
2023/03/17 07:28:44;;;;;;;0.10;0.10;;;9.10;1.00;;;;;;5051494;28;20431;-83
2023/03/17 07:31:12;;;;;;;0.10;0.10;;;9.10;1.00;;;;;;5050059;28;20762;-83
2023/03/17 07:33:39;;;;;;;0.03;0.03;;;9.10;1.00;;;;;;5051306;28;20560;-83
2023/03/17 07:36:06;;;;;;;0.03;0.03;;;9.10;1.00;;;;;;5051029;28;20057;-83
2023/03/17 07:38:32;;;;;;;0.25;0.25;;;9.20;1.00;;;;;;5047876;28;20510;-84
2023/03/17 07:40:58;;;;;;;0.25;0.25;;;9.40;1.00;;;;;;5048978;28;20041;-84
2023/03/17 07:43:25;;;;;;;0.00;0.00;;;9.40;1.00;;;;;;5047974;28;20624;-83
2023/03/17 07:46:13;;;;;;;0.20;0.20;;;9.40;1.00;;;;;;5048785;28;20586;-83
2023/03/17 07:48:43;;;;;;;0.40;0.40;;;10.00;1.00;;;;;;5050942;28;20055;-84
2023/03/17 07:51:14;;;;;;;1.35;0.30;;;9.60;1.00;;;;;;5050151;28;20172;-83
2023/03/17 07:53:40;;;;;;;0.00;0.00;;;9.70;1.00;;;;;;5048479;28;20047;-83
2023/03/17 07:56:07;;;;;;;0.22;0.10;;;10.00;1.00;;;;;;5048972;28;20045;-83
2023/03/17 07:58:33;;;;;;;0.65;0.40;;;10.20;1.00;;;;;;5049300;28;20110;-83
2023/03/17 08:00:59;;;;;;;0.20;0.20;;;10.50;1.00;;;;;;5049985;28;20088;-84
2023/03/17 08:03:25;;;;;;;0.20;0.17;;;10.70;1.00;;;;;;5049867;28;20048;-83
2023/03/17 08:05:54;;;;;;;0.32;0.30;;;10.80;1.00;;;;;;5050023;28;20522;-83
2023/03/17 08:08:21;;;;;;;0.20;0.13;;;10.80;1.00;;;;;;5049436;28;20048;-83
2023/03/17 08:10:48;;;;;;;0.00;0.00;;;10.80;1.00;;;;;;5049914;28;20086;-83
2023/03/17 08:13:14;;;;;;;0.10;0.10;;;10.70;1.00;;;;;;5048383;28;20045;-83
2023/03/17 08:15:40;;;;;;;0.10;0.10;;;10.70;1.00;;;;;;5048765;28;20511;-84
2023/03/17 08:18:06;;;;;;;0.38;0.38;;;11.40;1.00;;;;;;5047979;28;20640;-83
2023/03/17 08:20:32;;;;;;;0.10;0.10;;;10.80;1.00;;;;;;5049615;28;20450;-83
2023/03/17 08:22:57;;;;;;;0.20;0.17;;;10.80;1.00;;;;;;5047125;28;20052;-83
2023/03/17 08:25:23;;;;;;;0.00;0.00;;;11.00;1.00;;;;;;5047160;28;20473;-83
2023/03/17 08:27:49;;;;;;;0.98;0.65;;;10.90;1.00;;;;;;5047230;28;20133;-83
2023/03/17 08:30:15;;;;;;;0.65;0.57;;;10.90;1.00;;;;;;5046626;28;20052;-83
2023/03/17 08:32:42;;;;;;;0.00;0.00;;;10.90;1.00;;;;;;5047491;28;20051;-83
2023/03/17 08:35:14;;;;;;;0.17;0.13;;;11.00;1.00;;;;;;5053383;28;20044;-83
2023/03/17 08:37:42;;;;;;;0.00;0.00;;;10.90;1.00;;;;;;5053747;28;20577;-83
2023/03/17 08:40:09;;;;;;;0.00;0.00;;;11.00;1.00;;;;;;5053945;28;20064;-83
2023/03/17 08:42:36;;;;;;;1.63;0.88;;;11.00;1.00;;;;;;5053425;28;20061;-84
2023/03/17 08:45:05;;;;;;;0.35;0.30;;;11.10;1.00;;;;;;5052753;28;20045;-83
2023/03/17 08:47:33;;;;;;;0.20;0.17;;;11.10;1.00;;;;;;5050159;28;20051;-83
2023/03/17 08:49:59;;;;;;;0.15;0.15;;;11.20;1.00;;;;;;5047492;28;20057;-83
2023/03/17 08:52:26;;;;;;;0.10;0.10;;;11.30;1.00;;;;;;5050465;28;20056;-83
2023/03/17 08:54:53;;;;;;;0.10;0.10;;;11.40;1.00;;;;;;5048994;28;20040;-83
2023/03/17 08:57:19;;;;;;;0.32;0.20;;;11.50;1.00;;;;;;5048036;28;20062;-83
2023/03/17 08:59:46;;;;;;;0.10;0.10;;;11.60;1.00;;;;;;5049568;28;20132;-83
2023/03/17 09:02:13;;;;;;;3.63;0.30;;;11.70;1.00;;;;;;5049736;28;20045;-83
2023/03/17 09:04:40;;;;;;;0.00;0.00;;;11.90;1.00;;;;;;5048317;28;20044;-83
2023/03/17 09:07:05;;;;;;;0.25;0.15;;;12.00;1.00;;;;;;5049659;28;20049;-83
2023/03/17 09:09:34;;;;;;;0.00;0.00;;;12.20;1.00;;;;;;5049305;28;20037;-83
2023/03/17 09:12:01;;;;;;;1.00;0.45;;;12.30;1.00;;;;;;5049567;28;20053;-83
2023/03/17 09:14:27;;;;;;;3.15;1.88;;;12.40;1.00;;;;;;5049835;28;20608;-83
2023/03/17 09:16:54;;;;;;;1.08;0.35;;;12.40;1.00;;;;;;5050370;28;20057;-83
2023/03/17 09:19:20;;;;;;;0.13;0.10;;;12.50;1.00;;;;;;5050604;28;20124;-83
2023/03/17 09:21:46;;;;;;;0.10;0.10;;;12.60;1.00;;;;;;5052435;28;20177;-82
2023/03/17 09:24:12;;;;;;;22.60;0.98;;;12.70;1.00;;;;;;5051675;28;20049;-82
2023/03/17 09:26:38;;;;;;;2.50;0.88;;;12.80;1.00;;;;;;5050690;28;20048;-83
2023/03/17 09:29:04;;;;;;;0.30;0.30;;;12.80;1.00;;;;;;5050324;28;20049;-83
2023/03/17 09:31:30;;;;;;;0.30;0.30;;;12.80;1.00;;;;;;5060275;28;20045;-83
2023/03/17 09:33:57;;;;;;;0.45;0.10;;;12.90;1.00;;;;;;5051409;28;20128;-83
2023/03/17 09:36:23;;;;;;;0.55;0.30;;;12.90;1.00;;;;;;5049847;28;20534;-83
2023/03/17 09:38:49;;;;;;;2.33;0.57;;;13.10;1.00;;;;;;5050884;28;20048;-83
2023/03/17 09:41:17;;;;;;;0.52;0.40;;;13.20;1.00;;;;;;5050265;28;20104;-83
2023/03/17 09:44:21;;;;;;;1.38;1.13;;;13.40;1.00;;;;;;5048937;28;20049;-83
2023/03/17 09:47:04;;;;;;;0.00;0.00;;;13.50;1.00;;;;;;5047878;28;20509;-83
2023/03/17 09:49:53;;;;;;;0.22;0.22;;;14.00;1.00;;;;;;5045887;28;20076;-83
2023/03/17 09:52:26;;;;;;;0.93;0.73;;;14.50;1.00;;;;;;5044708;28;20142;-83
2023/03/17 09:54:53;;;;;;;1.25;0.20;;;14.40;1.00;;;;;;5049454;28;20621;-83
2023/03/17 09:57:34;;;;;;;0.00;0.00;;;14.60;1.00;;;;;;5049640;28;20088;-83
2023/03/17 10:00:17;;;;;;;0.35;0.20;;;15.10;1.00;;;;;;5049065;28;20041;-83
2023/03/17 10:02:43;;;;;;;3.65;0.70;;;15.80;1.00;;;;;;5049097;28;20041;-82
2023/03/17 10:05:27;;;;;;;0.17;0.17;;;16.20;1.00;;;;;;5053312;28;20092;-83
2023/03/17 10:08:11;;;;;;;0.30;0.17;;;16.50;1.00;;;;;;5053740;28;20362;-83
2023/03/17 10:10:50;;;;;;;0.88;0.55;;;16.70;1.00;;;;;;5052594;28;20132;-83
2023/03/17 10:13:42;;;;;;;0.28;0.28;;;16.70;1.00;;;;;;5054401;28;20052;-84
2023/03/17 10:16:16;;;;;;;0.30;0.30;;;16.80;1.00;;;;;;5049757;28;20053;-83
2023/03/17 10:18:58;;;;;;;1.15;0.60;;;16.90;1.00;;;;;;5050596;28;20059;-84
2023/03/17 10:21:30;;;;;;;1.55;1.13;;;16.90;1.00;;;;;;5051048;28;20263;-83
2023/03/17 10:23:57;;;;;;;0.20;0.20;;;16.80;1.00;;;;;;5049302;28;20067;-84
2023/03/17 10:26:49;;;;;;;0.00;0.00;;;16.60;1.00;;;;;;5044496;28;20049;-83
2023/03/17 10:29:24;;;;;;;0.00;0.00;;;16.60;1.00;;;;;;5043022;28;20055;-84
2023/03/17 10:31:51;;;;;;;0.32;0.15;;;16.70;1.00;;;;;;5049083;28;20048;-84
2023/03/17 10:34:29;;;;;;;5.88;1.15;;;16.90;1.00;;;;;;5048821;28;20045;-83
2023/03/17 10:37:07;;;;;;;0.17;0.17;;;16.70;1.00;;;;;;5049875;28;20060;-83
2023/03/17 10:39:44;;;;;;;0.30;0.30;;;16.60;1.00;;;;;;5049296;28;20465;-83
2023/03/17 10:42:28;;;;;;;0.22;0.22;;;16.80;1.00;;;;;;5049002;28;20057;-84
2023/03/17 10:45:13;;;;;;;0.52;0.52;;;16.90;1.00;;;;;;5049267;28;20049;-83
2023/03/17 10:47:52;;;;;;;0.30;0.30;;;17.00;1.00;;;;;;5049027;28;20045;-84
2023/03/17 10:50:31;;;;;;;0.20;0.20;;;16.90;1.00;;;;;;5048333;28;20118;-84
2023/03/17 10:53:08;;;;;;;3.25;0.88;;;17.10;1.00;;;;;;5045150;28;20114;-84
2023/03/17 10:55:36;;;;;;;0.93;0.55;;;17.20;1.00;;;;;;5043566;28;20076;-83
2023/03/17 10:58:18;;;;;;;0.20;0.20;;;17.30;1.00;;;;;;5042621;28;20084;-83
2023/03/17 11:00:57;;;;;;;0.00;0.00;;;17.30;1.00;;;;;;5046076;28;20059;-84
2023/03/17 11:03:34;;;;;;;7.47;1.80;;;17.20;1.00;;;;;;5050133;28;20387;-83
2023/03/17 11:06:04;;;;;;;0.00;0.00;;;17.10;1.00;;;;;;5049183;28;20064;-84
2023/03/17 11:08:34;;;;;;;0.35;0.35;;;17.50;1.00;;;;;;5048311;28;20545;-83
2023/03/17 11:11:05;;;;;;;1.00;0.30;;;17.50;1.00;;;;;;5049797;28;20047;-83
2023/03/17 11:13:31;;;;;;;0.43;0.43;;;17.70;1.00;;;;;;5047888;28;20072;-84
2023/03/17 11:16:21;;;;;;;0.00;0.00;;;17.90;1.00;;;;;;5049406;28;20048;-84
2023/03/17 11:18:49;;;;;;;0.47;0.30;;;18.00;1.00;;;;;;5049761;28;20102;-83
2023/03/17 11:21:21;;;;;;;0.25;0.22;;;18.00;1.00;;;;;;5049963;28;20049;-83
2023/03/17 11:24:03;;;;;;;0.35;0.35;;;18.10;1.00;;;;;;5032422;28;20101;-84
2023/03/17 11:27:04;;;;;;;0.15;0.10;;;18.00;1.00;;;;;;5032283;28;20054;-83
2023/03/17 11:29:38;;;;;;;2.58;1.00;;;17.80;1.00;;;;;;5038831;28;20073;-83
2023/03/17 11:32:27;;;;;;;0.20;0.20;;;17.80;1.00;;;;;;5029917;28;20072;-83
2023/03/17 11:35:11;;;;;;;0.35;0.30;;;17.80;1.00;;;;;;5030673;28;20080;-83
2023/03/17 11:37:58;;;;;;;0.75;0.75;;;18.00;1.00;;;;;;5027007;28;20088;-83
2023/03/17 11:40:51;;;;;;;0.43;0.40;;;18.30;1.00;;;;;;5026007;28;20057;-83
2023/03/17 11:43:44;;;;;;;0.30;0.30;;;18.40;1.00;;;;;;5025764;28;20123;-84
2023/03/17 11:46:19;;;;;;;1.83;1.17;;;18.60;1.00;;;;;;5027394;28;20053;-83
2023/03/17 11:48:57;;;;;;;1.10;0.55;;;18.70;1.00;;;;;;5030415;28;20049;-83
2023/03/17 11:51:39;;;;;;;0.57;0.52;;;18.70;1.00;;;;;;5028861;28;20069;-83
2023/03/17 11:54:32;;;;;;;0.68;0.63;;;18.80;1.00;;;;;;5031705;28;20494;-83
2023/03/17 11:57:02;;;;;;;0.47;0.35;;;18.90;1.00;;;;;;5030610;28;20081;-83
2023/03/17 11:59:51;;;;;;;0.93;0.68;;;18.90;1.00;;;;;;5032134;28;20049;-83
2023/03/17 12:02:38;;;;;;;0.17;0.13;;;19.10;1.00;;;;;;5031245;28;20045;-81
2023/03/17 12:05:12;;;;;;;4.75;0.52;;;19.20;1.00;;;;;;5031755;28;20089;-81
2023/03/17 12:08:17;;;;;;;5.80;0.35;;;19.20;1.00;;;;;;5030461;28;20049;-81
2023/03/17 12:11:07;;;;;;;0.10;0.10;;;19.30;1.00;;;;;;5048743;28;20076;-81
2023/03/17 12:13:54;;;;;;;1.38;0.60;;;19.50;1.00;;;;;;5030023;28;20071;-81
2023/03/17 12:16:39;;;;;;;3.03;0.50;;;19.70;1.00;;;;;;5028933;28;20417;-81
2023/03/17 12:19:27;;;;;;;2.38;1.20;;;19.90;1.00;;;;;;5028514;28;20119;-81
2023/03/17 12:22:14;;;;;;;0.75;0.75;;;19.80;1.00;;;;;;5029270;28;20061;-84
2023/03/17 12:24:52;;;;;;;0.52;0.45;;;19.80;1.00;;;;;;5028918;28;20490;-83
2023/03/17 12:27:39;;;;;;;0.20;0.20;;;19.60;1.00;;;;;;5032511;28;20053;-83
2023/03/17 12:30:19;;;;;;;0.03;0.03;;;19.50;1.00;;;;;;5032986;28;20049;-83
2023/03/17 12:33:08;;;;;;;0.77;0.70;;;19.10;1.00;;;;;;5051585;28;20056;-83
2023/03/17 12:35:37;;;;;;;1.05;0.95;;;19.00;1.00;;;;;;5051818;28;20170;-83
2023/03/17 12:38:23;;;;;;;0.95;0.73;;;19.20;1.00;;;;;;5051715;28;20384;-83
2023/03/17 12:40:54;;;;;;;0.20;0.20;;;19.60;1.00;;;;;;5047922;28;20055;-83
2023/03/17 12:43:35;;;;;;;1.02;0.08;;;19.60;1.00;;;;;;5049773;28;20132;-83
2023/03/17 12:46:21;;;;;;;0.38;0.35;;;19.90;1.00;;;;;;5049509;28;20059;-81
2023/03/17 12:49:17;;;;;;;0.20;0.20;;;19.60;1.00;;;;;;5050576;28;20053;-83
2023/03/17 12:52:00;;;;;;;0.25;0.15;;;19.40;1.00;;;;;;5048861;28;20059;-83
2023/03/17 12:54:32;;;;;;;1.65;0.85;;;19.10;1.00;;;;;;5046438;28;20056;-82
2023/03/17 12:57:15;;;;;;;0.57;0.50;;;19.00;1.00;;;;;;5045195;28;20048;-83
2023/03/17 12:59:42;;;;;;;0.35;0.32;;;19.10;1.00;;;;;;5045723;28;20052;-83
2023/03/17 13:02:34;;;;;;;0.40;0.40;;;19.00;1.00;;;;;;5049479;28;20048;-82
2023/03/17 13:05:04;;;;;;;0.70;0.55;;;18.80;1.00;;;;;;5049645;28;20052;-83
2023/03/17 13:07:39;;;;;;;1.92;0.98;;;18.60;1.00;;;;;;5045939;28;20037;-83
2023/03/17 13:10:13;;;;;;;13.03;0.80;;;18.60;1.00;;;;;;5032970;28;20049;-83
2023/03/17 13:12:38;;;;;;;0.10;0.10;;;19.00;1.00;;;;;;5032599;28;20350;-82
2023/03/17 13:15:36;;;;;;;0.30;0.30;;;19.40;1.00;;;;;;5032986;28;20045;-82
2023/03/17 13:18:14;;;;;;;0.20;0.20;;;19.40;1.00;;;;;;5052273;28;20128;-82